sensor_id;sensor_type;location;lat;lon;timestamp;temperature;humidity
27707;DHT22;36332;51.384;0.040;2023-08-20T00:02:25;17.10;99.90
27707;DHT22;36332;51.384;0.040;2023-08-20T00:04:56;17.10;99.90
27707;DHT22;36332;51.384;0.040;2023-08-20T00:07:24;17.10;99.90
27707;DHT22;36332;51.384;0.040;2023-08-20T00:09:52;17.00;99.90
27707;DHT22;36332;51.384;0.040;2023-08-20T00:12:20;17.00;99.90
27707;DHT22;36332;51.384;0.040;2023-08-20T00:15:03;17.00;99.90
27707;DHT22;36332;51.384;0.040;2023-08-20T00:17:39;17.00;99.90
27707;DHT22;36332;51.384;0.040;2023-08-20T00:20:09;17.00;99.90
27707;DHT22;36332;51.384;0.040;2023-08-20T00:22:44;17.00;99.90
27707;DHT22;36332;51.384;0.040;2023-08-20T00:25:14;17.00;99.90
27707;DHT22;36332;51.384;0.040;2023-08-20T00:27:43;17.00;99.90
27707;DHT22;36332;51.384;0.040;2023-08-20T00:30:11;17.00;99.90
27707;DHT22;36332;51.384;0.040;2023-08-20T00:32:38;16.90;99.90
27707;DHT22;36332;51.384;0.040;2023-08-20T00:35:06;17.00;99.90
27707;DHT22;36332;51.384;0.040;2023-08-20T00:37:36;17.00;99.90
27707;DHT22;36332;51.384;0.040;2023-08-20T00:40:04;17.00;99.90
27707;DHT22;36332;51.384;0.040;2023-08-20T00:42:32;17.00;99.90
27707;DHT22;36332;51.384;0.040;2023-08-20T00:45:02;17.00;99.90
27707;DHT22;36332;51.384;0.040;2023-08-20T00:47:31;17.00;99.90
27707;DHT22;36332;51.384;0.040;2023-08-20T00:49:59;16.90;99.90
27707;DHT22;36332;51.384;0.040;2023-08-20T00:52:27;17.00;99.90
27707;DHT22;36332;51.384;0.040;2023-08-20T00:54:54;17.00;99.90
27707;DHT22;36332;51.384;0.040;2023-08-20T00:57:23;16.90;99.90
27707;DHT22;36332;51.384;0.040;2023-08-20T00:59:50;16.90;99.90
27707;DHT22;36332;51.384;0.040;2023-08-20T01:02:20;16.90;99.90
27707;DHT22;36332;51.384;0.040;2023-08-20T01:04:48;16.90;99.90
27707;DHT22;36332;51.384;0.040;2023-08-20T01:07:29;16.80;99.90
27707;DHT22;36332;51.384;0.040;2023-08-20T01:12:34;16.80;99.90
27707;DHT22;36332;51.384;0.040;2023-08-20T01:15:02;16.80;99.90
27707;DHT22;36332;51.384;0.040;2023-08-20T01:17:30;16.80;99.90
27707;DHT22;36332;51.384;0.040;2023-08-20T01:19:58;16.80;99.90
27707;DHT22;36332;51.384;0.040;2023-08-20T01:22:51;16.80;99.90
27707;DHT22;36332;51.384;0.040;2023-08-20T01:28:29;16.70;99.90
27707;DHT22;36332;51.384;0.040;2023-08-20T01:30:59;16.80;99.90
27707;DHT22;36332;51.384;0.040;2023-08-20T01:33:27;16.70;99.90
27707;DHT22;36332;51.384;0.040;2023-08-20T01:35:55;16.70;99.90
27707;DHT22;36332;51.384;0.040;2023-08-20T01:38:22;16.70;99.90
27707;DHT22;36332;51.384;0.040;2023-08-20T01:40:50;16.70;99.90
27707;DHT22;36332;51.384;0.040;2023-08-20T01:43:17;16.60;99.90
27707;DHT22;36332;51.384;0.040;2023-08-20T01:45:46;16.60;99.90
27707;DHT22;36332;51.384;0.040;2023-08-20T01:48:15;16.60;99.90
27707;DHT22;36332;51.384;0.040;2023-08-20T01:50:43;16.60;99.90
27707;DHT22;36332;51.384;0.040;2023-08-20T01:53:13;16.50;99.90
27707;DHT22;36332;51.384;0.040;2023-08-20T01:55:42;16.50;99.90
27707;DHT22;36332;51.384;0.040;2023-08-20T01:58:10;16.50;99.90
27707;DHT22;36332;51.384;0.040;2023-08-20T02:00:38;16.50;99.90
27707;DHT22;36332;51.384;0.040;2023-08-20T02:03:06;16.50;99.90
27707;DHT22;36332;51.384;0.040;2023-08-20T02:05:34;16.50;99.90
27707;DHT22;36332;51.384;0.040;2023-08-20T02:08:05;16.50;99.90
27707;DHT22;36332;51.384;0.040;2023-08-20T02:10:32;16.50;99.90
27707;DHT22;36332;51.384;0.040;2023-08-20T02:13:00;16.50;99.90
27707;DHT22;36332;51.384;0.040;2023-08-20T02:15:28;16.50;99.90
27707;DHT22;36332;51.384;0.040;2023-08-20T02:17:56;16.50;99.90
27707;DHT22;36332;51.384;0.040;2023-08-20T02:20:24;16.50;99.90
27707;DHT22;36332;51.384;0.040;2023-08-20T02:22:54;16.50;99.90
27707;DHT22;36332;51.384;0.040;2023-08-20T02:25:22;16.40;99.90
27707;DHT22;36332;51.384;0.040;2023-08-20T02:27:52;16.50;99.90
27707;DHT22;36332;51.384;0.040;2023-08-20T02:30:20;16.50;99.90
27707;DHT22;36332;51.384;0.040;2023-08-20T02:32:48;16.50;99.90
27707;DHT22;36332;51.384;0.040;2023-08-20T02:35:16;16.50;99.90
27707;DHT22;36332;51.384;0.040;2023-08-20T02:37:44;16.50;99.90
27707;DHT22;36332;51.384;0.040;2023-08-20T02:40:12;16.50;99.90
27707;DHT22;36332;51.384;0.040;2023-08-20T02:42:41;16.40;99.90
27707;DHT22;36332;51.384;0.040;2023-08-20T02:45:09;17.10;99.90
27707;DHT22;36332;51.384;0.040;2023-08-20T02:47:36;16.40;99.90
27707;DHT22;36332;51.384;0.040;2023-08-20T02:50:05;16.40;99.90
27707;DHT22;36332;51.384;0.040;2023-08-20T02:52:33;16.40;99.90
27707;DHT22;36332;51.384;0.040;2023-08-20T02:55:01;16.40;99.90
27707;DHT22;36332;51.384;0.040;2023-08-20T02:57:28;16.40;99.90
27707;DHT22;36332;51.384;0.040;2023-08-20T02:59:56;16.40;99.90
27707;DHT22;36332;51.384;0.040;2023-08-20T03:02:24;16.30;99.90
27707;DHT22;36332;51.384;0.040;2023-08-20T03:04:51;16.30;99.90
27707;DHT22;36332;51.384;0.040;2023-08-20T03:07:20;16.30;99.90
27707;DHT22;36332;51.384;0.040;2023-08-20T03:09:48;16.30;99.90
27707;DHT22;36332;51.384;0.040;2023-08-20T03:12:15;16.30;99.90
27707;DHT22;36332;51.384;0.040;2023-08-20T03:14:43;16.30;99.90
27707;DHT22;36332;51.384;0.040;2023-08-20T03:17:10;16.20;99.90
27707;DHT22;36332;51.384;0.040;2023-08-20T03:19:54;16.20;99.90
27707;DHT22;36332;51.384;0.040;2023-08-20T03:22:23;16.20;99.90
27707;DHT22;36332;51.384;0.040;2023-08-20T03:24:52;16.20;99.90
27707;DHT22;36332;51.384;0.040;2023-08-20T03:27:20;16.20;99.90
27707;DHT22;36332;51.384;0.040;2023-08-20T03:29:47;16.10;99.90
27707;DHT22;36332;51.384;0.040;2023-08-20T03:32:15;16.10;99.90
27707;DHT22;36332;51.384;0.040;2023-08-20T03:34:43;16.10;99.90
27707;DHT22;36332;51.384;0.040;2023-08-20T03:37:10;16.10;99.90
27707;DHT22;36332;51.384;0.040;2023-08-20T03:39:38;16.10;99.90
27707;DHT22;36332;51.384;0.040;2023-08-20T03:42:06;16.10;99.90
27707;DHT22;36332;51.384;0.040;2023-08-20T03:44:34;16.10;99.90
27707;DHT22;36332;51.384;0.040;2023-08-20T03:47:02;16.10;99.90
27707;DHT22;36332;51.384;0.040;2023-08-20T03:49:29;16.10;99.90
27707;DHT22;36332;51.384;0.040;2023-08-20T03:51:57;16.10;99.90
27707;DHT22;36332;51.384;0.040;2023-08-20T03:54:24;16.10;99.90
27707;DHT22;36332;51.384;0.040;2023-08-20T03:56:52;16.10;99.90
27707;DHT22;36332;51.384;0.040;2023-08-20T03:59:19;16.20;99.90
27707;DHT22;36332;51.384;0.040;2023-08-20T04:01:49;16.20;99.90
27707;DHT22;36332;51.384;0.040;2023-08-20T04:04:17;16.20;99.90
27707;DHT22;36332;51.384;0.040;2023-08-20T04:06:45;16.20;99.90
27707;DHT22;36332;51.384;0.040;2023-08-20T04:09:13;16.20;99.90
27707;DHT22;36332;51.384;0.040;2023-08-20T04:11:41;16.30;99.90
27707;DHT22;36332;51.384;0.040;2023-08-20T04:14:09;16.30;99.90
27707;DHT22;36332;51.384;0.040;2023-08-20T04:16:37;16.30;99.90
27707;DHT22;36332;51.384;0.040;2023-08-20T04:19:05;16.20;99.90
27707;DHT22;36332;51.384;0.040;2023-08-20T04:21:33;16.20;99.90
27707;DHT22;36332;51.384;0.040;2023-08-20T04:24:00;16.20;99.90
27707;DHT22;36332;51.384;0.040;2023-08-20T04:26:29;16.20;99.90
27707;DHT22;36332;51.384;0.040;2023-08-20T04:28:56;16.20;99.90
27707;DHT22;36332;51.384;0.040;2023-08-20T04:31:24;16.10;99.90
27707;DHT22;36332;51.384;0.040;2023-08-20T04:33:58;16.10;99.90
27707;DHT22;36332;51.384;0.040;2023-08-20T04:36:37;16.10;99.90
27707;DHT22;36332;51.384;0.040;2023-08-20T04:39:05;16.10;99.90
27707;DHT22;36332;51.384;0.040;2023-08-20T04:41:36;16.00;99.90
27707;DHT22;36332;51.384;0.040;2023-08-20T04:44:03;16.00;99.90
27707;DHT22;36332;51.384;0.040;2023-08-20T04:46:31;16.00;99.90
27707;DHT22;36332;51.384;0.040;2023-08-20T04:48:59;15.90;99.90
27707;DHT22;36332;51.384;0.040;2023-08-20T04:51:27;15.90;99.90
27707;DHT22;36332;51.384;0.040;2023-08-20T04:53:55;15.90;99.90
27707;DHT22;36332;51.384;0.040;2023-08-20T04:56:23;15.90;99.90
27707;DHT22;36332;51.384;0.040;2023-08-20T04:58:52;15.90;99.90
27707;DHT22;36332;51.384;0.040;2023-08-20T05:01:40;15.90;99.90
27707;DHT22;36332;51.384;0.040;2023-08-20T05:04:08;15.90;99.90
27707;DHT22;36332;51.384;0.040;2023-08-20T05:06:37;15.90;99.90
27707;DHT22;36332;51.384;0.040;2023-08-20T05:09:04;15.90;99.90
27707;DHT22;36332;51.384;0.040;2023-08-20T05:11:32;16.00;99.90
27707;DHT22;36332;51.384;0.040;2023-08-20T05:14:01;16.00;99.90
27707;DHT22;36332;51.384;0.040;2023-08-20T05:16:30;16.00;99.90
27707;DHT22;36332;51.384;0.040;2023-08-20T05:18:58;16.00;99.90
27707;DHT22;36332;51.384;0.040;2023-08-20T05:21:26;16.10;99.90
27707;DHT22;36332;51.384;0.040;2023-08-20T05:23:54;16.10;99.90
27707;DHT22;36332;51.384;0.040;2023-08-20T05:26:22;16.10;99.90
27707;DHT22;36332;51.384;0.040;2023-08-20T05:28:49;16.20;99.90
27707;DHT22;36332;51.384;0.040;2023-08-20T05:31:17;16.20;99.90
27707;DHT22;36332;51.384;0.040;2023-08-20T05:33:45;16.30;99.90
27707;DHT22;36332;51.384;0.040;2023-08-20T05:36:14;16.30;99.90
27707;DHT22;36332;51.384;0.040;2023-08-20T05:38:44;16.30;99.90
27707;DHT22;36332;51.384;0.040;2023-08-20T05:41:11;16.40;99.90
27707;DHT22;36332;51.384;0.040;2023-08-20T05:43:39;16.50;99.90
27707;DHT22;36332;51.384;0.040;2023-08-20T05:46:07;16.50;99.90
27707;DHT22;36332;51.384;0.040;2023-08-20T05:48:35;16.50;99.90
27707;DHT22;36332;51.384;0.040;2023-08-20T05:51:05;16.60;99.90
27707;DHT22;36332;51.384;0.040;2023-08-20T05:53:33;16.60;99.90
27707;DHT22;36332;51.384;0.040;2023-08-20T05:56:00;16.70;99.90
27707;DHT22;36332;51.384;0.040;2023-08-20T05:58:28;16.70;99.90
27707;DHT22;36332;51.384;0.040;2023-08-20T06:00:56;16.80;99.90
27707;DHT22;36332;51.384;0.040;2023-08-20T06:03:24;16.90;99.90
27707;DHT22;36332;51.384;0.040;2023-08-20T06:05:51;16.90;99.90
27707;DHT22;36332;51.384;0.040;2023-08-20T06:08:19;17.00;99.90
27707;DHT22;36332;51.384;0.040;2023-08-20T06:10:46;17.00;99.90
27707;DHT22;36332;51.384;0.040;2023-08-20T06:13:14;17.10;99.90
27707;DHT22;36332;51.384;0.040;2023-08-20T06:15:42;17.20;99.90
27707;DHT22;36332;51.384;0.040;2023-08-20T06:18:09;17.30;99.90
27707;DHT22;36332;51.384;0.040;2023-08-20T06:20:37;17.20;99.90
27707;DHT22;36332;51.384;0.040;2023-08-20T06:23:04;17.30;99.90
27707;DHT22;36332;51.384;0.040;2023-08-20T06:25:32;17.40;99.90
27707;DHT22;36332;51.384;0.040;2023-08-20T06:28:00;17.40;99.90
27707;DHT22;36332;51.384;0.040;2023-08-20T06:30:27;17.50;99.90
27707;DHT22;36332;51.384;0.040;2023-08-20T06:32:55;17.60;99.90
27707;DHT22;36332;51.384;0.040;2023-08-20T06:35:22;17.70;99.90
27707;DHT22;36332;51.384;0.040;2023-08-20T06:37:50;17.80;99.90
27707;DHT22;36332;51.384;0.040;2023-08-20T06:40:17;17.80;99.90
27707;DHT22;36332;51.384;0.040;2023-08-20T06:42:45;17.90;99.90
27707;DHT22;36332;51.384;0.040;2023-08-20T06:45:12;18.00;99.90
27707;DHT22;36332;51.384;0.040;2023-08-20T06:47:41;18.00;99.90
27707;DHT22;36332;51.384;0.040;2023-08-20T06:50:09;18.10;99.90
27707;DHT22;36332;51.384;0.040;2023-08-20T06:52:36;18.10;99.90
27707;DHT22;36332;51.384;0.040;2023-08-20T06:55:04;18.20;99.90
27707;DHT22;36332;51.384;0.040;2023-08-20T06:57:32;18.20;99.90
27707;DHT22;36332;51.384;0.040;2023-08-20T07:00:00;18.30;99.90
27707;DHT22;36332;51.384;0.040;2023-08-20T07:02:29;18.40;99.90
27707;DHT22;36332;51.384;0.040;2023-08-20T07:04:56;18.50;99.90
27707;DHT22;36332;51.384;0.040;2023-08-20T07:07:24;18.50;99.90
27707;DHT22;36332;51.384;0.040;2023-08-20T07:09:51;18.60;99.90
27707;DHT22;36332;51.384;0.040;2023-08-20T07:12:19;18.70;99.90
27707;DHT22;36332;51.384;0.040;2023-08-20T07:14:47;18.80;99.90
27707;DHT22;36332;51.384;0.040;2023-08-20T07:17:14;18.80;99.90
27707;DHT22;36332;51.384;0.040;2023-08-20T07:19:42;18.90;99.90
27707;DHT22;36332;51.384;0.040;2023-08-20T07:22:09;19.00;99.90
27707;DHT22;36332;51.384;0.040;2023-08-20T07:24:37;19.00;99.90
27707;DHT22;36332;51.384;0.040;2023-08-20T07:27:04;19.10;99.90
27707;DHT22;36332;51.384;0.040;2023-08-20T07:29:38;19.20;99.90
27707;DHT22;36332;51.384;0.040;2023-08-20T07:32:06;19.40;99.90
27707;DHT22;36332;51.384;0.040;2023-08-20T07:34:33;19.50;99.90
27707;DHT22;36332;51.384;0.040;2023-08-20T07:37:01;19.60;99.90
27707;DHT22;36332;51.384;0.040;2023-08-20T07:39:30;19.60;99.90
27707;DHT22;36332;51.384;0.040;2023-08-20T07:41:57;19.80;99.90
27707;DHT22;36332;51.384;0.040;2023-08-20T07:44:25;19.80;99.90
27707;DHT22;36332;51.384;0.040;2023-08-20T07:46:52;19.90;99.90
27707;DHT22;36332;51.384;0.040;2023-08-20T07:49:20;19.90;99.90
27707;DHT22;36332;51.384;0.040;2023-08-20T07:51:47;20.00;99.90
27707;DHT22;36332;51.384;0.040;2023-08-20T07:54:15;20.10;99.90
27707;DHT22;36332;51.384;0.040;2023-08-20T07:56:43;20.10;99.90
27707;DHT22;36332;51.384;0.040;2023-08-20T07:59:11;20.10;99.90
27707;DHT22;36332;51.384;0.040;2023-08-20T08:01:49;20.20;99.90
27707;DHT22;36332;51.384;0.040;2023-08-20T08:04:25;20.20;99.90
27707;DHT22;36332;51.384;0.040;2023-08-20T08:06:53;20.20;99.90
27707;DHT22;36332;51.384;0.040;2023-08-20T08:09:26;20.20;99.90
27707;DHT22;36332;51.384;0.040;2023-08-20T08:11:55;20.30;99.90
27707;DHT22;36332;51.384;0.040;2023-08-20T08:14:22;20.30;99.90
27707;DHT22;36332;51.384;0.040;2023-08-20T08:16:50;20.40;99.90
27707;DHT22;36332;51.384;0.040;2023-08-20T08:19:18;20.50;99.90
27707;DHT22;36332;51.384;0.040;2023-08-20T08:21:47;20.50;99.90
27707;DHT22;36332;51.384;0.040;2023-08-20T08:24:15;20.60;99.90
27707;DHT22;36332;51.384;0.040;2023-08-20T08:26:42;20.70;99.90
27707;DHT22;36332;51.384;0.040;2023-08-20T08:29:10;20.80;99.90
27707;DHT22;36332;51.384;0.040;2023-08-20T08:31:37;20.90;99.90
27707;DHT22;36332;51.384;0.040;2023-08-20T08:34:05;21.00;99.90
27707;DHT22;36332;51.384;0.040;2023-08-20T08:36:32;21.10;99.90
27707;DHT22;36332;51.384;0.040;2023-08-20T08:39:00;20.80;99.90
27707;DHT22;36332;51.384;0.040;2023-08-20T08:41:28;21.30;99.90
27707;DHT22;36332;51.384;0.040;2023-08-20T08:43:56;21.40;99.90
27707;DHT22;36332;51.384;0.040;2023-08-20T08:46:25;21.40;99.90
27707;DHT22;36332;51.384;0.040;2023-08-20T08:48:53;21.40;99.90
27707;DHT22;36332;51.384;0.040;2023-08-20T08:51:21;21.40;99.90
27707;DHT22;36332;51.384;0.040;2023-08-20T08:53:48;21.40;99.90
27707;DHT22;36332;51.384;0.040;2023-08-20T08:56:17;21.50;99.90
27707;DHT22;36332;51.384;0.040;2023-08-20T08:58:44;21.70;99.90
27707;DHT22;36332;51.384;0.040;2023-08-20T09:01:12;21.80;99.90
27707;DHT22;36332;51.384;0.040;2023-08-20T09:03:39;22.00;99.90
27707;DHT22;36332;51.384;0.040;2023-08-20T09:06:10;22.40;99.90
27707;DHT22;36332;51.384;0.040;2023-08-20T09:08:38;22.30;99.90
27707;DHT22;36332;51.384;0.040;2023-08-20T09:11:06;22.50;99.90
27707;DHT22;36332;51.384;0.040;2023-08-20T09:16:07;22.90;99.90
27707;DHT22;36332;51.384;0.040;2023-08-20T09:18:44;23.10;99.90
27707;DHT22;36332;51.384;0.040;2023-08-20T09:21:13;23.10;99.90
27707;DHT22;36332;51.384;0.040;2023-08-20T09:23:45;23.20;99.90
27707;DHT22;36332;51.384;0.040;2023-08-20T09:26:13;23.50;99.90
27707;DHT22;36332;51.384;0.040;2023-08-20T09:28:43;23.20;99.90
27707;DHT22;36332;51.384;0.040;2023-08-20T09:31:12;23.30;99.90
27707;DHT22;36332;51.384;0.040;2023-08-20T09:33:52;23.20;99.90
27707;DHT22;36332;51.384;0.040;2023-08-20T09:36:30;23.20;99.90
27707;DHT22;36332;51.384;0.040;2023-08-20T09:38:58;23.20;99.90
27707;DHT22;36332;51.384;0.040;2023-08-20T09:41:26;23.30;99.90
27707;DHT22;36332;51.384;0.040;2023-08-20T09:43:56;23.40;99.90
27707;DHT22;36332;51.384;0.040;2023-08-20T09:46:26;23.50;99.90
27707;DHT22;36332;51.384;0.040;2023-08-20T09:48:58;23.60;99.90
27707;DHT22;36332;51.384;0.040;2023-08-20T09:51:27;23.70;99.90
27707;DHT22;36332;51.384;0.040;2023-08-20T09:54:12;23.80;99.90
27707;DHT22;36332;51.384;0.040;2023-08-20T09:56:43;24.00;99.90
27707;DHT22;36332;51.384;0.040;2023-08-20T09:59:12;24.20;99.90
27707;DHT22;36332;51.384;0.040;2023-08-20T10:01:40;24.20;99.90
27707;DHT22;36332;51.384;0.040;2023-08-20T10:04:10;24.40;99.90
27707;DHT22;36332;51.384;0.040;2023-08-20T10:06:38;24.40;99.90
27707;DHT22;36332;51.384;0.040;2023-08-20T10:09:06;24.50;99.90
27707;DHT22;36332;51.384;0.040;2023-08-20T10:11:34;24.50;99.90
27707;DHT22;36332;51.384;0.040;2023-08-20T10:14:02;24.50;99.90
27707;DHT22;36332;51.384;0.040;2023-08-20T10:16:29;24.40;99.90
27707;DHT22;36332;51.384;0.040;2023-08-20T10:19:05;24.00;99.90
27707;DHT22;36332;51.384;0.040;2023-08-20T10:21:33;22.80;99.90
27707;DHT22;36332;51.384;0.040;2023-08-20T10:24:05;23.70;99.90
27707;DHT22;36332;51.384;0.040;2023-08-20T10:26:33;23.70;99.90
27707;DHT22;36332;51.384;0.040;2023-08-20T10:32:10;23.80;99.90
27707;DHT22;36332;51.384;0.040;2023-08-20T10:34:42;24.00;99.90
27707;DHT22;36332;51.384;0.040;2023-08-20T10:37:13;24.30;99.90
27707;DHT22;36332;51.384;0.040;2023-08-20T10:39:41;24.70;99.90
27707;DHT22;36332;51.384;0.040;2023-08-20T10:42:26;24.80;99.90
27707;DHT22;36332;51.384;0.040;2023-08-20T10:45:06;25.10;99.90
27707;DHT22;36332;51.384;0.040;2023-08-20T10:50:11;25.70;99.90
27707;DHT22;36332;51.384;0.040;2023-08-20T10:52:50;26.00;99.90
27707;DHT22;36332;51.384;0.040;2023-08-20T10:55:22;25.60;99.90
27707;DHT22;36332;51.384;0.040;2023-08-20T10:57:57;26.10;99.90
27707;DHT22;36332;51.384;0.040;2023-08-20T11:00:27;26.10;99.90
27707;DHT22;36332;51.384;0.040;2023-08-20T11:02:55;25.90;99.90
27707;DHT22;36332;51.384;0.040;2023-08-20T11:05:24;25.80;99.90
27707;DHT22;36332;51.384;0.040;2023-08-20T11:07:52;25.70;99.90
27707;DHT22;36332;51.384;0.040;2023-08-20T11:10:20;25.70;99.90
27707;DHT22;36332;51.384;0.040;2023-08-20T11:12:48;25.80;99.90
27707;DHT22;36332;51.384;0.040;2023-08-20T11:15:16;26.00;99.90
27707;DHT22;36332;51.384;0.040;2023-08-20T11:17:47;26.20;99.90
27707;DHT22;36332;51.384;0.040;2023-08-20T11:20:18;26.30;99.90
27707;DHT22;36332;51.384;0.040;2023-08-20T11:22:45;26.30;99.90
27707;DHT22;36332;51.384;0.040;2023-08-20T11:25:13;26.30;99.90
27707;DHT22;36332;51.384;0.040;2023-08-20T11:27:44;26.30;99.90
27707;DHT22;36332;51.384;0.040;2023-08-20T11:30:12;26.40;99.90
27707;DHT22;36332;51.384;0.040;2023-08-20T11:32:42;26.50;99.90
27707;DHT22;36332;51.384;0.040;2023-08-20T11:35:11;26.70;99.90
27707;DHT22;36332;51.384;0.040;2023-08-20T11:37:40;27.00;99.90
27707;DHT22;36332;51.384;0.040;2023-08-20T11:40:08;27.20;99.90
27707;DHT22;36332;51.384;0.040;2023-08-20T11:42:36;27.50;99.90
27707;DHT22;36332;51.384;0.040;2023-08-20T11:45:04;27.70;99.90
27707;DHT22;36332;51.384;0.040;2023-08-20T11:47:41;27.80;99.90
27707;DHT22;36332;51.384;0.040;2023-08-20T11:50:10;27.80;99.90
27707;DHT22;36332;51.384;0.040;2023-08-20T11:52:38;27.70;99.90
27707;DHT22;36332;51.384;0.040;2023-08-20T11:55:08;27.40;99.90
27707;DHT22;36332;51.384;0.040;2023-08-20T11:57:37;27.00;99.90
27707;DHT22;36332;51.384;0.040;2023-08-20T12:00:05;26.60;99.90
27707;DHT22;36332;51.384;0.040;2023-08-20T12:02:41;26.30;99.90
27707;DHT22;36332;51.384;0.040;2023-08-20T12:05:09;26.10;99.90
27707;DHT22;36332;51.384;0.040;2023-08-20T12:07:37;25.80;99.90
27707;DHT22;36332;51.384;0.040;2023-08-20T12:10:35;25.30;99.90
27707;DHT22;36332;51.384;0.040;2023-08-20T12:13:02;25.30;99.90
27707;DHT22;36332;51.384;0.040;2023-08-20T12:15:32;25.30;99.90
27707;DHT22;36332;51.384;0.040;2023-08-20T12:18:05;25.90;99.90
27707;DHT22;36332;51.384;0.040;2023-08-20T12:20:34;25.80;99.90
27707;DHT22;36332;51.384;0.040;2023-08-20T12:23:05;26.10;99.90
27707;DHT22;36332;51.384;0.040;2023-08-20T12:25:34;26.10;99.90
27707;DHT22;36332;51.384;0.040;2023-08-20T12:28:03;26.10;99.90
27707;DHT22;36332;51.384;0.040;2023-08-20T12:30:33;25.90;99.90
27707;DHT22;36332;51.384;0.040;2023-08-20T12:33:05;25.70;99.90
27707;DHT22;36332;51.384;0.040;2023-08-20T12:35:34;25.90;99.90
27707;DHT22;36332;51.384;0.040;2023-08-20T12:38:02;26.00;99.90
27707;DHT22;36332;51.384;0.040;2023-08-20T12:40:30;26.20;99.90
27707;DHT22;36332;51.384;0.040;2023-08-20T12:42:58;26.70;99.90
27707;DHT22;36332;51.384;0.040;2023-08-20T12:45:25;27.30;99.90
27707;DHT22;36332;51.384;0.040;2023-08-20T12:47:53;26.70;99.90
27707;DHT22;36332;51.384;0.040;2023-08-20T12:50:21;27.60;99.90
27707;DHT22;36332;51.384;0.040;2023-08-20T12:52:49;27.50;99.90
27707;DHT22;36332;51.384;0.040;2023-08-20T12:55:18;27.30;99.90
27707;DHT22;36332;51.384;0.040;2023-08-20T12:57:57;27.00;99.90
27707;DHT22;36332;51.384;0.040;2023-08-20T13:00:25;26.70;99.90
27707;DHT22;36332;51.384;0.040;2023-08-20T13:02:54;26.40;99.90
27707;DHT22;36332;51.384;0.040;2023-08-20T13:05:23;26.10;99.90
27707;DHT22;36332;51.384;0.040;2023-08-20T13:07:52;25.90;99.90
27707;DHT22;36332;51.384;0.040;2023-08-20T13:10:21;25.70;99.90
27707;DHT22;36332;51.384;0.040;2023-08-20T13:12:51;25.60;99.90
27707;DHT22;36332;51.384;0.040;2023-08-20T13:15:20;25.50;99.90
27707;DHT22;36332;51.384;0.040;2023-08-20T13:17:49;25.80;99.90
27707;DHT22;36332;51.384;0.040;2023-08-20T13:20:18;27.10;99.90
27707;DHT22;36332;51.384;0.040;2023-08-20T13:22:49;27.20;99.90
27707;DHT22;36332;51.384;0.040;2023-08-20T13:25:17;28.00;99.90
27707;DHT22;36332;51.384;0.040;2023-08-20T13:27:52;28.00;99.90
27707;DHT22;36332;51.384;0.040;2023-08-20T13:30:23;27.70;99.90
27707;DHT22;36332;51.384;0.040;2023-08-20T13:32:51;27.70;99.90
27707;DHT22;36332;51.384;0.040;2023-08-20T13:35:19;27.60;99.90
27707;DHT22;36332;51.384;0.040;2023-08-20T13:37:46;28.10;99.90
27707;DHT22;36332;51.384;0.040;2023-08-20T13:40:14;28.30;99.90
27707;DHT22;36332;51.384;0.040;2023-08-20T13:42:41;28.80;99.90
27707;DHT22;36332;51.384;0.040;2023-08-20T13:45:09;29.00;99.90
27707;DHT22;36332;51.384;0.040;2023-08-20T13:47:37;29.10;99.90
27707;DHT22;36332;51.384;0.040;2023-08-20T13:50:05;29.00;99.90
27707;DHT22;36332;51.384;0.040;2023-08-20T13:52:33;28.70;99.90
27707;DHT22;36332;51.384;0.040;2023-08-20T13:55:01;28.30;99.90
27707;DHT22;36332;51.384;0.040;2023-08-20T13:57:30;28.30;99.90
27707;DHT22;36332;51.384;0.040;2023-08-20T13:59:58;28.80;99.90
27707;DHT22;36332;51.384;0.040;2023-08-20T14:02:26;29.60;99.90
27707;DHT22;36332;51.384;0.040;2023-08-20T14:04:53;30.50;99.90
27707;DHT22;36332;51.384;0.040;2023-08-20T14:07:21;30.50;99.90
27707;DHT22;36332;51.384;0.040;2023-08-20T14:09:49;30.90;99.90
27707;DHT22;36332;51.384;0.040;2023-08-20T14:12:17;31.50;99.90
27707;DHT22;36332;51.384;0.040;2023-08-20T14:14:44;31.60;99.90
27707;DHT22;36332;51.384;0.040;2023-08-20T14:17:12;31.30;99.90
27707;DHT22;36332;51.384;0.040;2023-08-20T14:19:39;31.50;99.90
27707;DHT22;36332;51.384;0.040;2023-08-20T14:22:07;31.70;99.90
27707;DHT22;36332;51.384;0.040;2023-08-20T14:24:35;32.30;99.90
27707;DHT22;36332;51.384;0.040;2023-08-20T14:27:03;32.90;99.90
27707;DHT22;36332;51.384;0.040;2023-08-20T14:29:30;33.40;99.40
27707;DHT22;36332;51.384;0.040;2023-08-20T14:31:58;33.60;97.30
27707;DHT22;36332;51.384;0.040;2023-08-20T14:34:25;33.80;96.70
27707;DHT22;36332;51.384;0.040;2023-08-20T14:36:53;33.90;96.50
27707;DHT22;36332;51.384;0.040;2023-08-20T14:39:20;34.40;95.10
27707;DHT22;36332;51.384;0.040;2023-08-20T14:41:48;34.40;94.90
27707;DHT22;36332;51.384;0.040;2023-08-20T14:44:15;34.40;94.60
27707;DHT22;36332;51.384;0.040;2023-08-20T14:46:43;34.40;93.80
27707;DHT22;36332;51.384;0.040;2023-08-20T14:49:11;34.30;93.10
27707;DHT22;36332;51.384;0.040;2023-08-20T14:51:38;34.10;92.80
27707;DHT22;36332;51.384;0.040;2023-08-20T14:54:18;34.10;92.30
27707;DHT22;36332;51.384;0.040;2023-08-20T14:56:51;33.80;91.90
27707;DHT22;36332;51.384;0.040;2023-08-20T14:59:19;33.20;91.80
27707;DHT22;36332;51.384;0.040;2023-08-20T15:01:48;33.10;92.40
27707;DHT22;36332;51.384;0.040;2023-08-20T15:04:16;32.00;93.20
27707;DHT22;36332;51.384;0.040;2023-08-20T15:06:47;31.60;93.30
27707;DHT22;36332;51.384;0.040;2023-08-20T15:09:14;30.70;93.70
27707;DHT22;36332;51.384;0.040;2023-08-20T15:11:45;29.70;95.10
27707;DHT22;36332;51.384;0.040;2023-08-20T15:14:13;29.60;95.50
27707;DHT22;36332;51.384;0.040;2023-08-20T15:16:41;28.60;96.80
27707;DHT22;36332;51.384;0.040;2023-08-20T15:19:08;28.40;97.90
27707;DHT22;36332;51.384;0.040;2023-08-20T15:21:36;28.50;97.80
27707;DHT22;36332;51.384;0.040;2023-08-20T15:24:03;28.30;98.00
27707;DHT22;36332;51.384;0.040;2023-08-20T15:26:31;28.10;98.50
27707;DHT22;36332;51.384;0.040;2023-08-20T15:29:02;27.70;98.70
27707;DHT22;36332;51.384;0.040;2023-08-20T15:31:30;27.80;99.50
27707;DHT22;36332;51.384;0.040;2023-08-20T15:33:58;28.20;99.60
27707;DHT22;36332;51.384;0.040;2023-08-20T15:36:26;28.50;99.80
27707;DHT22;36332;51.384;0.040;2023-08-20T15:41:22;30.10;98.40
27707;DHT22;36332;51.384;0.040;2023-08-20T15:43:50;31.20;96.60
27707;DHT22;36332;51.384;0.040;2023-08-20T15:46:18;31.40;95.50
27707;DHT22;36332;51.384;0.040;2023-08-20T15:48:51;31.30;96.20
27707;DHT22;36332;51.384;0.040;2023-08-20T15:51:19;31.30;96.10
27707;DHT22;36332;51.384;0.040;2023-08-20T15:53:47;31.70;96.30
27707;DHT22;36332;51.384;0.040;2023-08-20T15:56:17;32.30;95.80
27707;DHT22;36332;51.384;0.040;2023-08-20T16:01:13;33.30;94.10